createdAt,value
2018-11-20T00:03:55.618Z,93725.14
2018-11-20T00:19:23.230Z,93741.20
2018-11-20T00:34:46.395Z,93749.44
2018-11-20T00:50:08.630Z,93741.19
2018-11-20T01:05:40.876Z,93762.62
2018-11-20T01:21:06.592Z,93736.27
2018-11-20T01:36:45.703Z,93732.94
2018-11-20T01:52:22.250Z,93718.96
2018-11-20T02:07:55.002Z,93725.52
2018-11-20T02:23:37.782Z,93726.73
2018-11-20T02:39:00.662Z,93708.64
2018-11-20T02:54:26.054Z,93700.03
2018-11-20T03:09:42.857Z,93725.12
2018-11-20T03:25:05.121Z,93746.94
2018-11-20T03:40:27.443Z,93746.14
2018-11-20T03:55:47.464Z,93754.34
2018-11-20T04:11:10.895Z,93764.60
2018-11-20T04:26:33.433Z,93769.48
2018-11-20T04:41:57.107Z,93765.67
2018-11-20T04:57:20.664Z,93747.62
2018-11-20T05:12:43.415Z,93746.39
2018-11-20T05:28:05.915Z,93767.63
2018-11-20T05:43:33.068Z,93782.89
2018-11-20T05:58:55.458Z,93776.18
2018-11-20T06:14:38.222Z,93790.71
2018-11-20T06:30:02.565Z,93785.72
2018-11-20T06:45:20.985Z,93799.59
2018-11-20T07:00:47.390Z,93803.33
2018-11-20T07:16:39.024Z,93811.80
2018-11-20T07:32:08.986Z,93804.11
2018-11-20T07:47:20.692Z,93814.77
2018-11-20T08:02:53.451Z,93816.54
2018-11-20T08:18:16.277Z,93813.98
2018-11-20T08:33:46.513Z,93822.86
2018-11-20T08:49:02.905Z,93838.98
2018-11-20T09:04:39.639Z,93839.62
2018-11-20T09:19:59.629Z,93809.44
2018-11-20T09:35:34.626Z,93783.34
2018-11-20T09:50:56.497Z,93756.78
2018-11-20T10:06:26.021Z,93744.23
2018-11-20T10:21:56.823Z,93745.86
2018-11-20T10:37:19.234Z,93746.72
2018-11-20T10:52:33.620Z,93757.94
2018-11-20T11:07:58.450Z,93744.51
2018-11-20T11:23:26.863Z,93726.73
2018-11-20T11:38:44.718Z,93701.44
2018-11-20T11:54:20.311Z,93709.39
2018-11-20T12:09:46.565Z,93714.83
2018-11-20T12:25:00.942Z,93703.09
2018-11-20T12:40:34.132Z,93687.91
2018-11-20T12:55:56.880Z,93678.90
2018-11-20T13:11:21.598Z,93673.02
2018-11-20T13:26:54.301Z,93674.63
2018-11-20T13:42:25.852Z,93669.73
2018-11-20T13:57:52.998Z,93663.86
2018-11-20T14:13:10.725Z,93658.44
2018-11-20T14:28:34.565Z,93661.97
2018-11-20T14:43:57.408Z,93644.67
2018-11-20T14:59:36.041Z,93645.73
2018-11-20T15:14:58.884Z,93619.42
2018-11-20T15:30:23.117Z,93609.23
2018-11-20T15:45:53.519Z,93613.78
2018-11-20T16:01:22.978Z,93611.72
2018-11-20T16:16:52.716Z,93589.84
2018-11-20T16:32:14.992Z,93600.76
2018-11-20T16:47:49.947Z,93578.89
2018-11-20T17:03:12.394Z,93612.70
2018-11-20T17:18:36.542Z,93590.37
2018-11-20T17:33:59.376Z,93598.21
2018-11-20T17:49:24.165Z,93603.46
2018-11-20T18:04:43.611Z,93605.29
2018-11-20T18:20:25.713Z,93613.36
2018-11-20T18:35:48.546Z,93606.16
2018-11-20T18:51:11.286Z,93579.41
2018-11-20T19:06:34.978Z,93591.11
2018-11-20T19:22:07.777Z,93588.21
2018-11-20T19:37:50.005Z,93583.66
2018-11-20T19:53:12.730Z,93603.42
2018-11-20T20:08:42.864Z,93580.31
2018-11-20T20:23:58.748Z,93580.83
2018-11-20T20:39:23.272Z,93609.33
2018-11-20T20:54:48.974Z,93583.66
2018-11-20T21:10:25.832Z,93576.66
2018-11-20T21:25:52.038Z,93581.20
2018-11-20T21:41:29.531Z,93560.58
2018-11-20T21:56:59.159Z,93534.08
2018-11-20T22:12:26.662Z,93537.77
2018-11-20T22:28:00.979Z,93518.14
2018-11-20T22:43:24.712Z,93518.89
2018-11-20T22:58:58.509Z,93511.55
2018-11-20T23:14:03.839Z,93513.24
2018-11-20T23:29:09.657Z,93503.00
2018-11-20T23:44:15.704Z,93479.92
2018-11-20T23:59:21.440Z,93471.84
